Banco Playa, Mexico

5:05 PM EDT on April 25, 2017 (GMT -0400)
Cozumel | | Change Station

Elev 46 ft 20.50 °N, 86.96 °W | Updated 5 minutes ago

Scattered Clouds
Scattered Clouds
86.2 °F
Feels Like 92 °F
N
3.0
Wind Variable Wind from SE
Gusts 9.0 mph

Today
High -- | Low -- °F
--% Chance of Precip.
Yesterday
High -- | Low -- °F
Precip. -- in
Pressure 29.84 in
Visibility 8.0 miles
Clouds Scattered Clouds 1500 ft
Heat Index 92 °F
Dew Point 72 °F
Humidity 62%
Rainfall 0.00 in
Snow Depth Not available.
7:21 AM 8:09 PM
Waning Crescent, 1% visible
METAR MMCZ 252047Z 12010KT 8SM SCT015 30/20 A2982 RMK SLP103 57016 951 8/100 SC
Pressure 29.84 in
Visibility 8.0 miles
Clouds Scattered Clouds 1500 ft
Heat Index 92 °F
Dew Point 72 °F
Humidity 62%
Rainfall 0.00 in
Snow Depth Not available.
7:21 AM 8:09 PM
Waning Crescent, 1% visible
METAR MMCZ 252047Z 12010KT 8SM SCT015 30/20 A2982 RMK SLP103 57016 951 8/100 SC

Get Severe Weather Alerts

Thanks for signing up!

Be on the lookout for a verification email in your inbox.

You'll start receiving the daily forecast at 8 AM.

×

10-Day Weather Forecast

No radar image for this location.
×

Almanac

Astronomy

Apr. 25, 2017 Rise Set
Actual Time
Civil Twilight
Nautical Twilight
Astronomical Twilight
Moon
Length of Visible Light
Length of Day
Tomorrow will be .
, % of the Moon is Illuminated

Today's Extremes

Country Highs Country Lows

Community

WunderPhotos

WunderBlog® & News

Nearby

Air Quality

  Air Quality AQ Index Pollutant
Not available.

Snow Depth

Station Depth Elevation

Earthquake Activity

City Distance Mag. Time & Date
Minimum magnitude displayed is 2.5.

Coastal Water Temperatures

Place Temperature

Stations

Nearby Weather Stations

Station Location Temp. Windchill Dew Point Humidity Wind Precip. Elev Updated Type